Latest Weather Observations for Lochington

IDQ60801

Issued at 11:02 pm EST Tuesday 30 August 2016 (issued every 30 minutes, with the page automatically refreshed every 10 minutes)

About weather observations | Map of weather stations | Latest weather observations for QLD | Other Formats
Station Details ID: 035139 Name: LOCHINGTON Lat: -23.94 Lon: 147.53 Height: 267.19 m
Data from the previous 72 hours. | See also: Recent months at Lochington
Date/Time
EST
Temp
°C
App
Temp
°C
Dew
Point
°C
Rel
Hum
%
Delta-T
°C
Wind Press
QNH
hPa
Press
MSL
hPa
Rain since
9am
mm
Dir  Spd
km/h
Gust
km/h
Spd
kts
Gust
kts
30/11:00pm 17.3 16.6 12.0 71 2.9 NE 7 13 4 7 1023.6 1023.2 0.0
30/10:30pm 17.8 16.7 12.0 69 3.2 NNE 9 13 5 7 1023.3 1022.8 0.0
30/10:00pm 17.8 16.7 11.8 68 3.3 NNE 9 15 5 8 1023.3 1022.8 0.0
30/09:30pm 18.3 17.3 12.3 68 3.4 NE 9 15 5 8 1023.2 1022.7 0.0
30/09:00pm 18.0 16.9 12.0 68 3.3 NE 9 15 5 8 1023.3 1022.8 0.0
30/08:30pm 18.2 17.0 11.7 66 3.6 NE 9 11 5 6 1023.3 1022.8 0.0
30/08:00pm 19.3 19.0 11.6 61 4.3 ENE 4 6 2 3 1023.0 1022.5 0.0
30/07:30pm 19.7 18.5 11.5 59 4.6 ENE 9 11 5 6 1022.4 1021.9 0.0
30/07:00pm 20.7 19.5 11.6 56 5.1 ENE 9 11 5 6 1022.3 1021.8 0.0
30/06:30pm 21.2 20.3 11.5 54 5.5 ENE 7 9 4 5 1022.1 1021.6 0.0
30/06:00pm 21.4 20.4 11.1 52 5.7 NE 7 11 4 6 1021.8 1021.3 0.0
30/05:30pm 22.8 21.8 10.9 47 6.7 NE 7 13 4 7 1021.7 1021.2 0.0
30/05:00pm 23.4 21.3 11.1 46 6.9 NE 13 22 7 12 1021.3 1020.8 0.0
30/04:30pm 24.1 21.6 11.1 44 7.4 NNE 15 20 8 11 1021.3 1020.8 0.0
30/04:00pm 24.6 22.0 10.8 42 7.8 NE 15 20 8 11 1021.2 1020.7 0.0
30/03:30pm 25.1 22.3 11.3 42 7.9 NE 17 26 9 14 1021.2 1020.7 0.0
30/03:00pm 24.8 22.0 11.4 43 7.6 NNE 17 24 9 13 1021.6 1021.1 0.0
30/02:30pm 24.7 22.3 11.3 43 7.6 ENE 15 22 8 12 1022.1 1021.6 0.0
30/02:00pm 23.3 20.3 10.7 45 7.0 NNE 17 26 9 14 1022.5 1022.0 0.0
30/01:30pm 22.8 20.3 10.9 47 6.7 NE 15 28 8 15 1022.9 1022.4 0.0
30/01:00pm 23.2 20.2 11.9 49 6.4 NNE 19 30 10 16 1023.3 1022.8 0.0
30/12:30pm 24.0 21.8 13.2 50 6.3 NNE 17 32 9 17 1023.6 1023.2 0.0
30/12:00pm 22.1 18.5 11.8 52 5.8 NE 22 37 12 20 1023.9 1023.5 0.0
30/11:30am 21.7 19.0 12.8 57 5.1 NNE 19 30 10 16 1024.5 1024.0 0.0
30/11:00am 20.6 17.9 12.8 61 4.5 NNE 19 35 10 19 1025.1 1024.6 0.0
30/10:30am 20.5 17.5 12.7 61 4.5 NE 20 28 11 15 1025.6 1025.1 0.0
30/10:00am 19.4 16.1 12.7 65 3.8 NE 22 32 12 17 1026.1 1025.6 0.0
30/09:30am 18.2 16.6 12.9 71 3.0 NE 13 20 7 11 1026.3 1025.8 0.0
30/09:00am 16.8 15.7 13.1 79 2.1 NE 11 15 6 8 1026.2 1025.7 0.0
30/08:30am 15.7 15.1 13.4 86 1.3 ENE 9 13 5 7 1026.1 1025.6 0.0
30/08:00am 14.6 14.1 12.8 89 1.0 NE 7 13 4 7 1026.0 1025.5 0.0
30/07:30am 13.9 13.6 12.6 92 0.7 NNE 6 7 3 4 1025.7 1025.2 0.0
30/07:00am 11.3 11.2 10.7 96 0.3 ENE 2 4 1 2 1025.4 1024.9 0.0
30/06:30am 10.4 9.5 9.2 92 0.6 NE 4 4 2 2 1024.7 1024.2 0.0
30/06:00am 11.4 10.3 10.6 95 0.4 NE 7 9 4 5 1024.2 1023.7 0.0
30/05:30am 11.1 10.4 10.0 93 0.6 NE 4 7 2 4 1023.4 1022.9 0.0
30/05:00am 11.4 10.2 10.3 93 0.6 NNE 7 9 4 5 1023.0 1022.5 0.0
30/04:30am 11.8 10.7 10.7 93 0.6 NNE 7 9 4 5 1022.5 1022.0 0.0
30/04:00am 11.6 10.5 10.0 90 0.8 NE 6 9 3 5 1022.4 1021.9 0.0
30/03:30am 12.4 10.5 10.5 88 1.0 ENE 11 13 6 7 1022.1 1021.6 0.0
30/03:00am 12.7 11.2 10.4 86 1.2 ENE 9 13 5 7 1022.3 1021.8 0.0
30/02:30am 12.5 10.9 10.2 86 1.2 E 9 11 5 6 1022.4 1021.9 0.0
30/02:00am 12.7 11.0 9.9 83 1.4 ENE 9 11 5 6 1022.5 1022.0 0.0
30/01:30am 13.1 11.0 9.9 81 1.7 ENE 11 17 6 9 1022.6 1022.1 0.0
30/01:00am 13.6 11.2 10.0 79 1.9 ENE 13 17 7 9 1022.8 1022.3 0.0
30/12:30am 13.9 11.8 9.9 77 2.1 ENE 11 15 6 8 1023.2 1022.7 0.0
30/12:00am 14.4 12.4 10.0 75 2.3 ENE 11 17 6 9 1023.3 1022.8 0.0
 
Date/Time
EST
Temp
°C
App
Temp
°C
Dew
Point
°C
Rel
Hum
%
Delta-T
°C
Wind Press
QNH
hPa
Press
MSL
hPa
Rain since
9am
mm
Dir  Spd
km/h
Gust
km/h
Spd
kts
Gust
kts
29/11:30pm 14.7 12.3 10.1 74 2.4 ENE 13 19 7 10 1023.3 1022.8 0.0
29/11:00pm 14.6 13.0 10.2 75 2.3 ENE 9 15 5 8 1023.3 1022.8 0.0
29/10:30pm 15.3 13.6 9.9 70 2.9 ENE 9 13 5 7 1023.2 1022.7 0.0
29/10:00pm 15.2 13.5 9.8 70 2.8 ENE 9 11 5 6 1022.9 1022.4 0.0
29/09:30pm 16.1 14.9 10.2 68 3.1 NE 7 9 4 5 1023.0 1022.5 0.0
29/09:00pm 14.6 13.6 8.8 68 3.0 ENE 4 6 2 3 1023.0 1022.5 0.0
29/08:30pm 17.4 15.3 9.8 61 4.1 ENE 11 13 6 7 1022.7 1022.2 0.0
29/08:00pm 17.8 16.5 9.9 60 4.2 ENE 7 9 4 5 1022.4 1021.9 0.0
29/07:30pm 17.9 16.5 9.5 58 4.5 NE 7 9 4 5 1022.1 1021.6 0.0
29/07:00pm 19.3 17.5 9.5 53 5.2 ENE 9 11 5 6 1021.8 1021.3 0.0
29/06:30pm 19.4 17.6 9.3 52 5.4 ENE 9 11 5 6 1021.5 1021.0 0.0
29/06:00pm 20.3 18.4 8.9 48 6.1 ENE 9 13 5 7 1021.2 1020.7 0.0
29/05:30pm 22.0 18.9 8.9 43 7.1 ENE 15 22 8 12 1020.9 1020.4 0.0
29/05:00pm 23.0 19.9 8.7 40 7.7 ENE 15 20 8 11 1020.9 1020.4 0.0
29/04:30pm 23.6 20.2 9.2 40 7.9 ENE 17 24 9 13 1020.8 1020.3 0.0
29/04:00pm 23.7 19.6 8.6 38 8.1 NE 20 33 11 18 1020.8 1020.3 0.0
29/03:30pm 23.8 20.2 8.2 37 8.4 ENE 17 28 9 15 1020.8 1020.3 0.0
29/03:00pm 24.5 21.2 9.6 39 8.2 ENE 17 28 9 15 1021.1 1020.6 0.0
29/02:30pm 23.6 19.6 8.1 37 8.3 ENE 19 30 10 16 1021.5 1021.0 0.0
29/02:00pm 23.0 19.2 7.5 37 8.2 ENE 17 30 9 16 1021.8 1021.3 0.0
29/01:30pm 23.0 18.8 8.3 39 7.9 ENE 20 35 11 19 1022.1 1021.6 0.0
29/01:00pm 22.6 18.4 8.3 40 7.6 NE 20 32 11 17 1022.5 1022.0 0.0
29/12:30pm 22.8 18.8 9.2 42 7.4 NE 20 32 11 17 1023.0 1022.5 0.0
29/12:00pm 22.7 18.7 9.1 42 7.4 ENE 20 33 11 18 1023.4 1022.9 0.0
29/11:30am 21.9 17.6 7.7 40 7.5 ENE 20 33 11 18 1024.1 1023.6 0.0
29/11:00am 21.1 17.4 10.0 49 6.0 NE 20 32 11 17 1024.6 1024.1 0.0
29/10:30am 20.5 17.5 10.6 53 5.5 NE 17 28 9 15 1025.2 1024.7 0.0
29/10:00am 18.6 16.6 10.2 58 4.5 ENE 11 20 6 11 1025.6 1025.1 0.0
29/09:30am 16.8 14.9 9.0 60 4.1 NE 9 17 5 9 1025.8 1025.3 0.0
29/09:00am 15.2 13.6 8.9 66 3.2 E 7 13 4 7 1025.6 1025.1 0.0
29/08:30am 13.4 11.2 7.8 69 2.8 E 9 15 5 8 1025.5 1025.0 0.0
29/08:00am 11.0 9.3 7.7 80 1.6 E 6 9 3 5 1025.4 1024.9 0.0
29/07:30am 8.9 8.2 7.0 88 0.9 CALM 0 0 0 0 1024.9 1024.4 0.0
29/07:00am 5.5 3.9 4.6 94 0.4 NW 2 4 1 2 1024.3 1023.8 0.0
29/06:30am 3.9 2.0 2.9 93 0.4 WNW 2 4 1 2 1023.9 1023.5 0.0
29/06:00am 4.2 2.3 2.7 90 0.6 NNW 2 6 1 3 1023.2 1022.7 0.0
29/05:30am 7.3 4.1 5.1 86 1.0 E 11 13 6 7 1022.6 1022.1 0.0
29/05:00am 4.8 3.5 3.9 94 0.4 CALM 0 0 0 0 1022.4 1021.9 0.0
29/04:30am 4.8 3.4 3.8 93 0.4 CALM 0 0 0 0 1022.2 1021.7 0.0
29/04:00am 5.2 3.9 4.0 92 0.5 CALM 0 0 0 0 1021.9 1021.4 0.0
29/03:30am 6.0 4.8 4.8 92 0.5 CALM 0 0 0 0 1021.9 1021.4 0.0
29/03:00am 6.1 5.0 4.9 92 0.5 CALM 0 2 0 1 1022.1 1021.6 0.0
29/02:30am 5.9 4.6 4.1 88 0.8 CALM 0 0 0 0 1022.2 1021.7 0.0
29/02:00am 7.2 6.1 5.3 88 0.9 CALM 0 0 0 0 1022.4 1021.9 0.0
29/01:30am 7.3 5.5 5.6 89 0.8 NW 4 6 2 3 1022.3 1021.8 0.0
29/01:00am 6.8 5.4 5.4 91 0.6 WNW 2 7 1 4 1022.1 1021.6 0.0
29/12:30am 7.1 6.1 5.4 89 0.8 CALM 0 0 0 0 1021.9 1021.4 0.0
29/12:00am 7.7 6.8 6.0 89 0.8 CALM 0 0 0 0 1021.9 1021.4 0.0
 
Date/Time
EST
Temp
°C
App
Temp
°C
Dew
Point
°C
Rel
Hum
%
Delta-T
°C
Wind Press
QNH
hPa
Press
MSL
hPa
Rain since
9am
mm
Dir  Spd
km/h
Gust
km/h
Spd
kts
Gust
kts
28/11:30pm 8.1 7.2 6.1 87 0.9 CALM 0 0 0 0 1022.0 1021.5 0.0
28/11:00pm 8.8 8.0 6.3 84 1.2 CALM 0 0 0 0 1022.1 1021.6 0.0
28/10:30pm 8.9 8.0 6.0 82 1.3 CALM 0 0 0 0 1022.3 1021.8 0.0
28/10:00pm 9.5 8.6 6.2 80 1.5 CALM 0 0 0 0 1022.5 1022.0 0.0
28/09:30pm 9.8 9.0 6.5 80 1.6 CALM 0 0 0 0 1022.4 1021.9 0.0
28/09:00pm 11.0 10.0 5.7 70 2.5 CALM 0 0 0 0 1022.1 1021.6 0.0
28/08:30pm 12.0 11.2 6.5 69 2.6 CALM 0 0 0 0 1022.3 1021.8 0.0
28/08:00pm 12.1 11.1 5.7 65 3.0 CALM 0 0 0 0 1022.0 1021.5 0.0
28/07:30pm 14.1 12.6 4.9 54 4.3 NE 2 4 1 2 1021.7 1021.2 0.0
28/07:00pm 16.8 14.6 5.4 47 5.5 NNE 6 6 3 3 1021.6 1021.1 0.0
28/06:30pm 17.1 15.2 5.1 45 5.8 NE 4 6 2 3 1021.5 1021.0 0.0
28/06:00pm 18.2 15.7 4.7 41 6.5 ENE 7 9 4 5 1021.1 1020.6 0.0
28/05:30pm 19.5 16.4 3.6 35 7.6 ENE 9 13 5 7 1021.0 1020.5 0.0
28/05:00pm 20.8 17.8 4.0 33 8.2 NE 9 15 5 8 1020.8 1020.3 0.0
28/04:30pm 20.6 17.1 3.3 32 8.3 ENE 11 15 6 8 1020.7 1020.2 0.0
28/04:00pm 21.1 16.6 1.9 28 9.0 E 15 20 8 11 1020.5 1020.0 0.0
28/03:30pm 20.8 17.0 1.6 28 8.9 ENE 11 19 6 10 1020.5 1020.0 0.0
28/03:00pm 21.1 17.7 1.9 28 9.0 ENE 9 20 5 11 1020.6 1020.1 0.0
28/02:30pm 21.3 16.9 0.5 25 9.5 ENE 13 24 7 13 1021.1 1020.6 0.0
28/02:00pm 20.4 16.1 1.3 28 8.8 ENE 13 20 7 11 1021.4 1020.9 0.0
28/01:30pm 20.7 17.2 3.4 32 8.3 E 11 22 6 12 1022.0 1021.5 0.0
28/01:00pm 20.5 17.5 2.3 30 8.5 NE 7 15 4 8 1022.4 1021.9 0.0
28/12:30pm 19.7 15.3 2.6 32 8.0 ENE 15 26 8 14 1022.8 1022.3 0.0
28/12:00pm 20.0 16.1 3.3 33 8.0 ENE 13 20 7 11 1023.3 1022.8 0.0
28/11:30am 19.3 15.0 3.5 35 7.5 ENE 15 26 8 14 1024.1 1023.6 0.0
28/11:00am 18.6 14.2 2.9 35 7.3 ENE 15 24 8 13 1024.4 1023.9 0.0
28/10:30am 17.8 12.7 2.9 37 7.0 ENE 19 33 10 18 1024.7 1024.2 0.0
28/10:00am 16.5 12.7 3.9 43 5.9 ENE 13 22 7 12 1025.3 1024.8 0.0
28/09:30am 14.8 11.3 3.6 47 5.2 ENE 11 17 6 9 1025.4 1024.9 0.0
28/09:00am 13.9 11.0 4.8 54 4.3 ENE 9 17 5 9 1025.2 1024.7 0.0
28/08:30am 12.1 9.8 4.6 60 3.5 E 6 7 3 4 1025.1 1024.6 0.0
28/08:00am 10.8 9.1 5.8 71 2.3 NE 4 7 2 4 1024.8 1024.3 0.0
28/07:30am 6.4 4.8 4.6 88 0.8 NW 2 4 1 2 1024.6 1024.1 0.0
28/07:00am 4.4 1.7 2.9 90 0.6 WNW 6 6 3 3 1024.2 1023.7 0.0
28/06:30am 2.7 0.2 1.4 91 0.5 WNW 4 6 2 3 1023.7 1023.3 0.0
28/06:00am 2.9 0.4 1.4 90 0.6 WNW 4 6 2 3 1023.3 1022.8 0.0
28/05:30am 3.4 0.6 2.1 91 0.5 WNW 6 7 3 4 1023.1 1022.6 0.0
28/05:00am 3.4 0.4 2.2 92 0.5 WNW 7 7 4 4 1022.5 1022.0 0.0
28/04:30am 3.7 1.3 1.9 88 0.7 NW 4 6 2 3 1022.3 1021.8 0.0
28/04:00am 4.1 1.7 2.1 87 0.8 WNW 4 6 2 3 1022.4 1021.9 0.0
28/03:30am 4.3 1.6 2.5 88 0.7 WNW 6 7 3 4 1022.5 1022.0 0.0
28/03:00am 4.1 1.4 2.9 92 0.5 WNW 6 6 3 3 1022.7 1022.2 0.0
28/02:30am 4.0 1.6 2.2 88 0.7 WNW 4 6 2 3 1022.7 1022.2 0.0
28/02:00am 5.2 3.0 3.2 87 0.8 WNW 4 6 2 3 1022.8 1022.3 0.0
28/01:30am 5.1 3.0 3.8 91 0.6 NW 4 6 2 3 1022.9 1022.4 0.0
28/01:00am 5.2 3.0 3.5 89 0.7 WNW 4 6 2 3 1023.1 1022.6 0.0
28/12:30am 5.1 2.9 3.1 87 0.8 WNW 4 6 2 3 1023.4 1022.9 0.0
28/12:00am 6.0 3.9 4.0 87 0.9 WNW 4 4 2 2 1023.4 1022.9 0.0
 
Date/Time
EST
Temp
°C
App
Temp
°C
Dew
Point
°C
Rel
Hum
%
Delta-T
°C
Wind Press
QNH
hPa
Press
MSL
hPa
Rain since
9am
mm
Dir  Spd
km/h
Gust
km/h
Spd
kts
Gust
kts
27/11:30pm 6.4 4.0 4.2 86 1.0 WNW 6 6 3 3 1023.6 1023.2 0.0

Other Formats:

Comma delimited format used in spreadsheet applications
http://www.bom.gov.au/fwo/IDQ60801/IDQ60801.94399.axf

JavaScript Object Notation format (JSON) in row-major order
http://www.bom.gov.au/fwo/IDQ60801/IDQ60801.94399.json